Terminal Aerodrome Forecast
Issued by NWS Green Bay, WI

Home | Current Version | Previous Version | Graphics & Text | Print | Product List | Glossary On
Versions: 1 2 3 4 5 6 7 8 9 10 11 12 13 14 15 16 17 18 19 20 21 22 23 24 25 26 27 28 29
000
FTUS43 KGRB 271100
TAFGRB
TAF
KGRB 271132Z 2712/2812 16003KT 6SM BR SKC
      TEMPO 2712/2713 2SM BR
     FM271500 15005KT P6SM SKC
     FM280400 00000KT 6SM BR SKC
      TEMPO 2808/2812 1SM BR=

USA.gov is the U.S. government's official web portal to all federal, state and local government web resources and services.